createdAt,value
2022-12-25T00:01:50.849Z,11.38
2022-12-25T00:04:19.294Z,11.38
2022-12-25T00:06:57.693Z,11.34
2022-12-25T00:09:27.319Z,11.32
2022-12-25T00:11:57.521Z,11.22
2022-12-25T00:14:33.712Z,11.15
2022-12-25T00:17:05.511Z,11.29
2022-12-25T00:19:42.719Z,11.26
2022-12-25T00:22:26.728Z,11.09
2022-12-25T00:25:04.279Z,11.30
2022-12-25T00:27:37.981Z,11.02
2022-12-25T00:30:09.952Z,11.00
2022-12-25T00:32:42.508Z,11.15
2022-12-25T00:35:19.003Z,11.09
2022-12-25T00:37:51.048Z,11.13
2022-12-25T00:40:22.283Z,11.00
2022-12-25T00:42:53.381Z,11.19
2022-12-25T00:45:22.608Z,11.09
2022-12-25T00:47:52.453Z,10.97
2022-12-25T00:50:26.886Z,10.94
2022-12-25T00:53:06.816Z,10.95
2022-12-25T00:55:49.313Z,10.94
2022-12-25T00:58:28.895Z,10.95
2022-12-25T01:01:00.458Z,10.97
2022-12-25T01:03:36.987Z,11.05
2022-12-25T01:06:14.491Z,10.94
2022-12-25T01:09:07.819Z,11.15
2022-12-25T01:11:38.542Z,11.14
2022-12-25T01:14:10.437Z,11.07
2022-12-25T01:16:40.247Z,10.88
2022-12-25T01:19:12.238Z,11.03
2022-12-25T01:21:43.938Z,11.14
2022-12-25T01:24:16.672Z,11.03
2022-12-25T01:26:50.836Z,10.92
2022-12-25T01:29:24.580Z,10.90
2022-12-25T01:31:54.242Z,11.01
2022-12-25T01:34:24.558Z,11.01
2022-12-25T01:36:53.822Z,10.91
2022-12-25T01:39:25.015Z,10.89
2022-12-25T01:42:01.857Z,10.81
2022-12-25T01:45:08.114Z,11.00
2022-12-25T01:47:37.311Z,10.97
2022-12-25T01:50:24.904Z,10.99
2022-12-25T01:53:05.341Z,10.89
2022-12-25T01:55:36.488Z,10.77
2022-12-25T01:58:14.378Z,10.93
2022-12-25T02:00:43.611Z,10.74
2022-12-25T02:03:13.572Z,10.88
2022-12-25T02:05:46.697Z,10.94
2022-12-25T02:08:20.480Z,10.83
2022-12-25T02:10:58.673Z,10.81
2022-12-25T02:13:30.577Z,10.84
2022-12-25T02:16:05.299Z,10.75
2022-12-25T02:18:45.767Z,10.75
2022-12-25T02:21:31.724Z,10.70
2022-12-25T02:24:35.963Z,10.69
2022-12-25T02:27:55.292Z,10.64
2022-12-25T02:30:25.572Z,10.64
2022-12-25T02:33:18.791Z,10.66
2022-12-25T02:35:56.155Z,10.52
2022-12-25T02:38:31.783Z,10.60
2022-12-25T02:41:02.954Z,10.56
2022-12-25T02:43:57.207Z,10.59
2022-12-25T02:46:47.469Z,10.53
2022-12-25T02:49:41.004Z,10.49
2022-12-25T02:52:33.245Z,10.49
2022-12-25T02:55:26.007Z,10.52
2022-12-25T02:58:28.259Z,10.49
2022-12-25T03:01:19.107Z,10.51
2022-12-25T03:04:05.972Z,10.49
2022-12-25T03:06:49.444Z,10.48
2022-12-25T03:09:45.298Z,10.57
2022-12-25T03:12:23.001Z,10.49
2022-12-25T03:15:13.029Z,10.52
2022-12-25T03:17:49.683Z,10.46
2022-12-25T03:20:38.246Z,10.51
2022-12-25T03:23:25.837Z,10.62
2022-12-25T03:26:15.320Z,10.57
2022-12-25T03:28:46.437Z,10.62
2022-12-25T03:31:18.965Z,10.56
2022-12-25T03:34:29.029Z,10.52
2022-12-25T03:37:23.527Z,10.56
2022-12-25T03:40:15.037Z,10.54
2022-12-25T03:43:08.866Z,10.51
2022-12-25T03:46:12.569Z,10.52
2022-12-25T03:49:04.083Z,10.52
2022-12-25T03:51:58.541Z,10.59
2022-12-25T03:54:52.686Z,10.58
2022-12-25T03:57:39.014Z,10.61
2022-12-25T04:00:29.685Z,10.48
2022-12-25T04:03:17.432Z,10.56
2022-12-25T04:06:08.622Z,10.50
2022-12-25T04:09:00.344Z,10.46
2022-12-25T04:11:49.256Z,10.58
2022-12-25T04:14:39.920Z,10.61
2022-12-25T04:17:28.665Z,10.58
2022-12-25T04:20:15.330Z,10.57
2022-12-25T04:23:02.066Z,10.51
2022-12-25T04:25:53.053Z,10.41
2022-12-25T04:28:41.396Z,10.47
2022-12-25T04:31:30.202Z,10.52
2022-12-25T04:34:21.063Z,10.51
2022-12-25T04:36:54.610Z,10.37
2022-12-25T04:39:25.233Z,10.43
2022-12-25T04:42:02.577Z,10.49
2022-12-25T04:44:39.829Z,10.37
2022-12-25T04:47:12.894Z,10.42
2022-12-25T04:49:41.955Z,10.35
2022-12-25T04:52:17.955Z,10.32
2022-12-25T04:54:47.125Z,10.25
2022-12-25T04:57:33.807Z,10.22
2022-12-25T05:00:05.570Z,10.20
2022-12-25T05:02:36.397Z,10.17
2022-12-25T05:05:06.196Z,10.22
2022-12-25T05:07:35.043Z,10.27
2022-12-25T05:10:05.580Z,10.14
2022-12-25T05:12:43.104Z,10.20
2022-12-25T05:15:13.053Z,10.19
2022-12-25T05:17:41.941Z,10.22
2022-12-25T05:20:16.197Z,10.22
2022-12-25T05:22:45.373Z,10.18
2022-12-25T05:25:17.037Z,10.06
2022-12-25T05:27:53.853Z,10.11
2022-12-25T05:30:25.927Z,10.04
2022-12-25T05:33:02.308Z,10.04
2022-12-25T05:35:34.046Z,9.96
2022-12-25T05:38:03.807Z,9.93
2022-12-25T05:40:33.481Z,9.86
2022-12-25T05:43:08.434Z,9.92
2022-12-25T05:45:43.894Z,9.97
2022-12-25T05:48:20.980Z,10.00
2022-12-25T05:50:52.358Z,9.86
2022-12-25T05:53:28.551Z,9.80
2022-12-25T05:56:04.702Z,9.81
2022-12-25T05:58:39.987Z,9.79
2022-12-25T06:01:19.009Z,9.77
2022-12-25T06:03:50.571Z,9.71
2022-12-25T06:06:22.494Z,9.68
2022-12-25T06:08:53.235Z,9.76
2022-12-25T06:11:25.345Z,9.78
2022-12-25T06:13:56.019Z,9.84
2022-12-25T06:16:26.414Z,9.66
2022-12-25T06:18:56.321Z,9.69
2022-12-25T06:21:32.833Z,9.71
2022-12-25T06:24:06.865Z,9.67
2022-12-25T06:26:44.966Z,9.62
2022-12-25T06:29:20.415Z,9.72
2022-12-25T06:31:50.438Z,9.60
2022-12-25T06:34:21.769Z,9.76
2022-12-25T06:36:51.631Z,9.64
2022-12-25T06:39:33.831Z,9.75
2022-12-25T06:42:07.802Z,9.75
2022-12-25T06:44:39.478Z,9.75
2022-12-25T06:47:08.948Z,9.65
2022-12-25T06:49:37.985Z,9.61
2022-12-25T06:52:08.659Z,9.53
2022-12-25T06:54:46.330Z,9.50
2022-12-25T06:57:24.063Z,9.58
2022-12-25T06:59:55.563Z,9.63
2022-12-25T07:02:29.380Z,9.63
2022-12-25T07:05:02.605Z,9.60
2022-12-25T07:07:32.285Z,9.55
2022-12-25T07:10:01.376Z,9.54
2022-12-25T07:12:35.368Z,9.67
2022-12-25T07:15:21.947Z,9.69
2022-12-25T07:17:58.446Z,9.69
2022-12-25T07:20:30.316Z,9.61
2022-12-25T07:22:59.664Z,9.68
2022-12-25T07:25:36.853Z,9.68
2022-12-25T07:28:06.907Z,9.73
2022-12-25T07:30:41.274Z,9.72
2022-12-25T07:33:19.725Z,9.84
2022-12-25T07:35:49.061Z,9.66
2022-12-25T07:38:19.195Z,9.68
2022-12-25T07:40:49.719Z,9.75
2022-12-25T07:43:20.735Z,9.81
2022-12-25T07:45:59.257Z,9.60
2022-12-25T07:48:30.381Z,9.64
2022-12-25T07:51:04.930Z,9.62
2022-12-25T07:53:33.609Z,9.46
2022-12-25T07:56:06.711Z,9.28
2022-12-25T07:58:35.477Z,9.51
2022-12-25T08:01:11.717Z,9.57
2022-12-25T08:03:42.822Z,9.57
2022-12-25T08:06:23.056Z,9.43
2022-12-25T08:08:53.542Z,9.42
2022-12-25T08:11:33.161Z,9.32
2022-12-25T08:14:02.105Z,9.39
2022-12-25T08:16:41.627Z,9.35
2022-12-25T08:19:12.690Z,9.36
2022-12-25T08:21:43.421Z,9.35
2022-12-25T08:24:19.396Z,9.21
2022-12-25T08:26:48.952Z,9.14
2022-12-25T08:29:20.723Z,9.34
2022-12-25T08:31:54.960Z,9.29
2022-12-25T08:34:33.965Z,9.29
2022-12-25T08:37:05.914Z,9.20
2022-12-25T08:39:36.198Z,9.28
2022-12-25T08:42:10.200Z,9.40
2022-12-25T08:44:39.355Z,9.21
2022-12-25T08:47:11.846Z,9.26
2022-12-25T08:49:42.220Z,9.20
2022-12-25T08:52:12.033Z,9.21
2022-12-25T08:54:43.260Z,9.22
2022-12-25T08:57:23.939Z,9.55
2022-12-25T08:59:57.001Z,9.58
2022-12-25T09:02:29.026Z,9.54
2022-12-25T09:05:04.006Z,9.44
2022-12-25T09:07:35.374Z,9.54
2022-12-25T09:10:12.525Z,9.45
2022-12-25T09:12:43.546Z,9.57
2022-12-25T09:15:18.781Z,9.79
2022-12-25T09:17:59.716Z,9.74
2022-12-25T09:20:39.037Z,9.64
2022-12-25T09:23:14.388Z,9.66
2022-12-25T09:25:44.187Z,9.58
2022-12-25T09:28:19.234Z,9.57
2022-12-25T09:30:47.538Z,9.53
2022-12-25T09:33:24.065Z,9.71
2022-12-25T09:36:04.786Z,9.73
2022-12-25T09:38:33.267Z,9.80
2022-12-25T09:41:09.669Z,9.89
2022-12-25T09:43:41.896Z,9.83
2022-12-25T09:46:23.634Z,9.95
2022-12-25T09:49:08.563Z,10.04
2022-12-25T09:51:41.463Z,9.88
2022-12-25T09:54:23.030Z,10.01
2022-12-25T09:56:54.897Z,10.02
2022-12-25T09:59:34.971Z,10.17
2022-12-25T10:02:21.588Z,10.13
2022-12-25T10:05:45.589Z,10.05
2022-12-25T10:08:24.536Z,9.98
2022-12-25T10:11:00.504Z,10.13
2022-12-25T10:13:53.451Z,10.18
2022-12-25T10:16:31.295Z,10.24
2022-12-25T10:19:13.604Z,10.39
2022-12-25T10:21:44.509Z,10.37
2022-12-25T10:24:24.117Z,10.38
2022-12-25T10:26:55.193Z,10.45
2022-12-25T10:29:24.746Z,10.52
2022-12-25T10:31:55.474Z,10.49
2022-12-25T10:34:27.920Z,10.60
2022-12-25T10:37:00.635Z,10.57
2022-12-25T10:39:39.614Z,10.65
2022-12-25T10:42:56.194Z,10.59
2022-12-25T10:45:26.239Z,10.70
2022-12-25T10:48:08.686Z,10.78
2022-12-25T10:50:49.333Z,10.68
2022-12-25T10:53:31.304Z,10.72
2022-12-25T10:56:03.242Z,10.62
2022-12-25T10:58:41.886Z,10.60
2022-12-25T11:01:12.375Z,10.61
2022-12-25T11:03:43.351Z,10.79
2022-12-25T11:06:26.245Z,10.81
2022-12-25T11:09:03.929Z,10.81
2022-12-25T11:11:41.191Z,10.75
2022-12-25T11:14:21.760Z,10.81
2022-12-25T11:17:03.113Z,10.77
2022-12-25T11:19:41.412Z,10.80
2022-12-25T11:22:29.155Z,10.82
2022-12-25T11:25:16.842Z,10.92
2022-12-25T11:27:50.340Z,11.00
2022-12-25T11:30:22.335Z,11.10
2022-12-25T11:32:56.442Z,11.05
2022-12-25T11:35:34.177Z,11.12
2022-12-25T11:38:09.481Z,11.15
2022-12-25T11:40:47.174Z,11.22
2022-12-25T11:43:23.407Z,11.26
2022-12-25T11:45:58.592Z,11.33
2022-12-25T11:48:35.155Z,11.43
2022-12-25T11:51:05.136Z,11.45
2022-12-25T11:53:41.463Z,11.49
2022-12-25T11:56:21.171Z,11.50
2022-12-25T11:58:53.919Z,11.50
2022-12-25T12:01:34.157Z,11.46
2022-12-25T12:04:11.040Z,11.50
2022-12-25T12:06:52.964Z,11.56
2022-12-25T12:09:37.152Z,11.53
2022-12-25T12:12:36.506Z,11.45
2022-12-25T12:15:14.824Z,11.50
2022-12-25T12:17:44.514Z,11.55
2022-12-25T12:20:30.981Z,11.55
2022-12-25T12:23:00.228Z,11.57
2022-12-25T12:25:30.353Z,11.60
2022-12-25T12:28:06.023Z,11.59
2022-12-25T12:30:43.648Z,11.61
2022-12-25T12:33:25.681Z,11.55
2022-12-25T12:35:59.453Z,11.54
2022-12-25T12:38:30.567Z,11.44
2022-12-25T12:41:09.245Z,11.44
2022-12-25T12:43:43.897Z,11.50
2022-12-25T12:46:30.663Z,11.51
2022-12-25T12:49:13.630Z,11.51
2022-12-25T12:51:50.264Z,11.51
2022-12-25T12:54:21.999Z,11.47
2022-12-25T12:57:07.071Z,11.47
2022-12-25T12:59:50.098Z,11.41
2022-12-25T13:02:48.146Z,11.44
2022-12-25T13:05:36.908Z,11.44
2022-12-25T13:08:23.977Z,11.40
2022-12-25T13:11:00.826Z,11.41
2022-12-25T13:13:36.121Z,11.38
2022-12-25T13:16:17.643Z,11.38
2022-12-25T13:18:49.396Z,11.32
2022-12-25T13:21:24.354Z,11.23
2022-12-25T13:24:00.697Z,11.29
2022-12-25T13:26:39.335Z,11.24
2022-12-25T13:29:16.975Z,11.10
2022-12-25T13:31:49.561Z,11.12
2022-12-25T13:34:24.175Z,11.05
2022-12-25T13:36:52.651Z,11.00
2022-12-25T13:39:21.284Z,11.00
2022-12-25T13:42:11.409Z,11.03
2022-12-25T13:44:51.461Z,10.98
2022-12-25T13:47:33.576Z,10.95
2022-12-25T13:50:18.406Z,10.89
2022-12-25T13:52:52.709Z,10.94
2022-12-25T13:55:26.789Z,10.99
2022-12-25T13:58:04.793Z,10.83
2022-12-25T14:00:39.995Z,10.86
2022-12-25T14:03:21.903Z,10.87
2022-12-25T14:05:57.566Z,10.79
2022-12-25T14:08:35.166Z,10.64
2022-12-25T14:11:22.524Z,10.59
2022-12-25T14:13:55.845Z,10.70
2022-12-25T14:16:25.514Z,10.67
2022-12-25T14:19:07.492Z,10.61
2022-12-25T14:21:49.455Z,10.59
2022-12-25T14:24:21.153Z,10.56
2022-12-25T14:27:01.081Z,10.66
2022-12-25T14:29:36.760Z,10.62
2022-12-25T14:32:15.928Z,10.51
2022-12-25T14:34:50.045Z,10.45
2022-12-25T14:37:27.268Z,10.37
2022-12-25T14:39:57.907Z,10.36
2022-12-25T14:42:29.467Z,10.21
2022-12-25T14:45:10.902Z,10.23
2022-12-25T14:47:52.038Z,10.14
2022-12-25T14:50:29.804Z,10.17
2022-12-25T14:53:11.567Z,10.06
2022-12-25T14:55:47.800Z,10.04
2022-12-25T14:58:28.051Z,10.03
2022-12-25T15:00:59.242Z,10.02
2022-12-25T15:03:33.379Z,9.91
2022-12-25T15:06:06.686Z,9.87
2022-12-25T15:08:44.399Z,9.87
2022-12-25T15:11:14.965Z,9.82
2022-12-25T15:13:47.813Z,9.91
2022-12-25T15:16:22.556Z,9.94
2022-12-25T15:18:52.155Z,9.79
2022-12-25T15:21:27.330Z,9.82
2022-12-25T15:23:56.319Z,9.71
2022-12-25T15:26:28.877Z,9.72
2022-12-25T15:28:59.478Z,9.81
2022-12-25T15:31:29.638Z,9.69
2022-12-25T15:34:07.677Z,9.64
2022-12-25T15:36:42.201Z,9.62
2022-12-25T15:39:10.587Z,9.64
2022-12-25T15:42:03.393Z,9.62
2022-12-25T15:44:34.269Z,9.58
2022-12-25T15:47:06.322Z,9.56
2022-12-25T15:49:43.060Z,9.74
2022-12-25T15:52:19.073Z,9.54
2022-12-25T15:54:47.586Z,9.60
2022-12-25T15:57:20.059Z,9.49
2022-12-25T15:59:48.659Z,9.59
2022-12-25T16:02:28.369Z,9.49
2022-12-25T16:04:56.908Z,9.36
2022-12-25T16:07:41.248Z,9.31
2022-12-25T16:10:16.529Z,9.36
2022-12-25T16:12:56.646Z,9.46
2022-12-25T16:15:36.425Z,9.43
2022-12-25T16:18:09.591Z,9.38
2022-12-25T16:20:39.875Z,9.32
2022-12-25T16:23:10.899Z,9.32
2022-12-25T16:25:43.481Z,9.16
2022-12-25T16:28:13.535Z,9.18
2022-12-25T16:30:52.163Z,9.04
2022-12-25T16:33:22.398Z,9.01
2022-12-25T16:35:57.678Z,8.92
2022-12-25T16:38:28.847Z,9.07
2022-12-25T16:41:21.001Z,9.09
2022-12-25T16:43:57.990Z,9.07
2022-12-25T16:46:27.142Z,9.02
2022-12-25T16:48:59.603Z,8.97
2022-12-25T16:51:31.405Z,8.99
2022-12-25T16:54:13.536Z,9.09
2022-12-25T16:56:41.736Z,9.15
2022-12-25T16:59:14.014Z,9.16
2022-12-25T17:01:52.264Z,9.23
2022-12-25T17:04:24.087Z,9.08
2022-12-25T17:06:53.047Z,9.09
2022-12-25T17:09:44.609Z,9.10
2022-12-25T17:12:23.046Z,9.03
2022-12-25T17:15:00.506Z,9.04
2022-12-25T17:17:29.040Z,8.99
2022-12-25T17:19:58.809Z,8.91
2022-12-25T17:22:30.148Z,8.82
2022-12-25T17:25:08.469Z,8.80
2022-12-25T17:27:36.771Z,8.75
2022-12-25T17:30:12.584Z,8.87
2022-12-25T17:32:54.791Z,8.89
2022-12-25T17:35:24.558Z,8.85
2022-12-25T17:37:52.785Z,8.99
2022-12-25T17:40:37.736Z,8.98
2022-12-25T17:43:06.758Z,9.01
2022-12-25T17:45:40.943Z,8.82
2022-12-25T17:48:12.497Z,8.89
2022-12-25T17:50:42.316Z,8.87
2022-12-25T17:53:13.378Z,8.77
2022-12-25T17:56:02.020Z,8.68
2022-12-25T17:58:43.301Z,8.77
2022-12-25T18:01:15.059Z,8.82
2022-12-25T18:03:44.277Z,8.78
2022-12-25T18:06:16.533Z,8.63
2022-12-25T18:08:48.914Z,8.59
2022-12-25T18:11:24.744Z,8.65
2022-12-25T18:13:55.011Z,8.57
2022-12-25T18:16:26.133Z,8.56
2022-12-25T18:19:02.336Z,8.62
2022-12-25T18:21:36.885Z,8.52
2022-12-25T18:24:17.295Z,8.51
2022-12-25T18:26:57.968Z,8.48
2022-12-25T18:29:29.929Z,8.43
2022-12-25T18:32:04.724Z,8.26
2022-12-25T18:34:37.110Z,8.40
2022-12-25T18:37:14.168Z,8.35
2022-12-25T18:39:50.586Z,8.28
2022-12-25T18:42:40.635Z,8.24
2022-12-25T18:45:18.867Z,8.23
2022-12-25T18:47:56.800Z,8.22
2022-12-25T18:50:26.056Z,8.32
2022-12-25T18:52:55.245Z,8.42
2022-12-25T18:55:23.920Z,8.27
2022-12-25T18:58:03.596Z,8.33
2022-12-25T19:00:36.847Z,8.30
2022-12-25T19:03:07.159Z,8.21
2022-12-25T19:05:41.329Z,8.30
2022-12-25T19:08:16.128Z,8.25
2022-12-25T19:10:44.719Z,8.07
2022-12-25T19:13:30.930Z,8.19
2022-12-25T19:16:02.940Z,8.12
2022-12-25T19:18:33.213Z,8.27
2022-12-25T19:21:04.067Z,8.17
2022-12-25T19:23:33.704Z,8.05
2022-12-25T19:26:05.635Z,8.08
2022-12-25T19:28:40.256Z,7.99
2022-12-25T19:31:22.390Z,8.04
2022-12-25T19:33:59.721Z,8.11
2022-12-25T19:36:29.170Z,8.03
2022-12-25T19:39:06.258Z,8.13
2022-12-25T19:41:35.586Z,7.94
2022-12-25T19:44:23.426Z,7.89
2022-12-25T19:46:55.922Z,7.99
2022-12-25T19:49:25.333Z,8.00
2022-12-25T19:51:58.697Z,7.98
2022-12-25T19:54:29.686Z,8.06
2022-12-25T19:57:01.206Z,7.90
2022-12-25T19:59:40.460Z,7.99
2022-12-25T20:02:21.766Z,8.08
2022-12-25T20:05:04.875Z,7.97
2022-12-25T20:07:37.058Z,8.17
2022-12-25T20:10:14.667Z,7.97
2022-12-25T20:12:45.836Z,7.96
2022-12-25T20:15:32.016Z,7.96
2022-12-25T20:18:03.594Z,8.07
2022-12-25T20:20:33.322Z,8.06
2022-12-25T20:23:19.039Z,7.96
2022-12-25T20:25:49.374Z,7.98
2022-12-25T20:28:25.883Z,8.04
2022-12-25T20:31:08.763Z,8.07
2022-12-25T20:33:37.712Z,8.19
2022-12-25T20:36:07.313Z,8.15
2022-12-25T20:38:39.340Z,8.11
2022-12-25T20:41:28.536Z,8.12
2022-12-25T20:43:59.127Z,8.15
2022-12-25T20:46:36.379Z,8.26
2022-12-25T20:49:16.279Z,8.25
2022-12-25T20:51:52.088Z,8.21
2022-12-25T20:54:29.732Z,8.22
2022-12-25T20:57:02.127Z,8.07
2022-12-25T20:59:37.787Z,8.14
2022-12-25T21:02:11.255Z,7.97
2022-12-25T21:05:05.038Z,8.21
2022-12-25T21:07:34.264Z,8.11
2022-12-25T21:10:06.037Z,8.21
2022-12-25T21:12:37.367Z,8.14
2022-12-25T21:15:15.650Z,8.08
2022-12-25T21:17:53.601Z,7.97
2022-12-25T21:20:23.027Z,7.98
2022-12-25T21:23:00.546Z,7.97
2022-12-25T21:25:31.562Z,7.95
2022-12-25T21:28:00.044Z,7.81
2022-12-25T21:30:33.810Z,8.06
2022-12-25T21:33:21.849Z,8.12
2022-12-25T21:35:53.485Z,7.96
2022-12-25T21:38:25.142Z,7.84
2022-12-25T21:40:55.989Z,7.76
2022-12-25T21:43:25.248Z,7.81
2022-12-25T21:45:55.643Z,7.85
2022-12-25T21:48:27.726Z,7.96
2022-12-25T21:51:16.842Z,7.92
2022-12-25T21:53:50.183Z,7.87
2022-12-25T21:56:29.434Z,7.67
2022-12-25T21:59:01.873Z,7.58
2022-12-25T22:01:38.221Z,7.76
2022-12-25T22:04:17.857Z,7.70
2022-12-25T22:07:04.425Z,7.73
2022-12-25T22:09:34.484Z,7.75
2022-12-25T22:12:21.456Z,7.73
2022-12-25T22:14:58.069Z,7.87
2022-12-25T22:17:48.549Z,7.73
2022-12-25T22:20:31.057Z,7.84
2022-12-25T22:23:02.716Z,7.74
2022-12-25T22:25:32.279Z,7.78
2022-12-25T22:28:06.118Z,7.58
2022-12-25T22:30:37.767Z,7.62
2022-12-25T22:33:06.814Z,7.54
2022-12-25T22:35:38.305Z,7.68
2022-12-25T22:38:16.916Z,7.69
2022-12-25T22:40:49.310Z,7.70
2022-12-25T22:43:20.755Z,7.69
2022-12-25T22:45:59.282Z,7.70
2022-12-25T22:48:30.911Z,7.67
2022-12-25T22:51:04.842Z,7.63
2022-12-25T22:53:34.381Z,7.63
2022-12-25T22:56:05.277Z,7.80
2022-12-25T22:58:36.903Z,7.79
2022-12-25T23:01:16.696Z,7.81
2022-12-25T23:03:48.858Z,7.78
2022-12-25T23:06:20.935Z,7.64
2022-12-25T23:08:59.791Z,7.71
2022-12-25T23:11:35.940Z,7.61
2022-12-25T23:14:24.399Z,7.69
2022-12-25T23:16:56.372Z,7.59
2022-12-25T23:19:47.726Z,7.69
2022-12-25T23:22:56.490Z,7.59
2022-12-25T23:25:46.912Z,7.63
2022-12-25T23:28:47.399Z,7.64
2022-12-25T23:31:17.411Z,7.59
2022-12-25T23:33:47.593Z,7.62
2022-12-25T23:36:22.560Z,7.50
2022-12-25T23:38:53.682Z,7.79
2022-12-25T23:41:31.547Z,7.63
2022-12-25T23:44:09.718Z,7.69
2022-12-25T23:46:40.072Z,7.59
2022-12-25T23:49:13.976Z,7.73
2022-12-25T23:51:45.473Z,7.71
2022-12-25T23:54:29.624Z,7.64
2022-12-25T23:56:59.421Z,7.71
2022-12-25T23:59:33.394Z,7.62
